CYPH

Inukjuak Airport

Inukjuak, Quebec, Canada
METAR CYPH 241100Z AUTO 26015G21KT 9SM FEW022 SCT031 OVC047 02/M02 A3031 RMK SLP267
Observed Flight Rules
Sep-24 @ 11:00 UTC (33 minutes ago) Visual Flight Rules
Wind Visibility Clouds
260° at 15 knots
 Gusting to 21 knots
9 miles
  • Few at 2,200' AGL
  • Scattered at 3,100' AGL
  • Overcast at 4,700' AGL
Temperatures Readings
Current 2°C / 36°F
Dewpoint -2°C / 28°F
Humidity 75%
Altimeter 30.31" Hg
Pressure 1026.7 hPa
Elevation 3
METAR CYPH 241100Z AUTO 26015G21KT 9SM FEW022 SCT031 OVC047 02/M02 A3031 RMK SLP267
Observed Flight Rules
Sep-24 @ 11:00 UTC
(33 minutes ago)
VFR
Wind Visibility
260° at 15 knots
 Gusting to 21 knots
9 miles
Clouds
  • Few at 2,200' AGL
  • Scattered at 3,100' AGL
  • Overcast at 4,700' AGL
Temperature Dewpoint
2°C / 36°F -2°C / 28°F
Humidity Altimeter Pressure
75% 30.31" Hg 1026.7 hPa